createdAt,value
2022-10-13T00:00:42.278Z,100.00
2022-10-13T00:03:09.013Z,100.00
2022-10-13T00:05:35.576Z,100.00
2022-10-13T00:08:02.037Z,100.00
2022-10-13T00:10:28.602Z,100.00
2022-10-13T00:12:55.144Z,100.00
2022-10-13T00:15:21.708Z,100.00
2022-10-13T00:17:48.261Z,100.00
2022-10-13T00:20:14.762Z,100.00
2022-10-13T00:22:41.193Z,100.00
2022-10-13T00:25:07.890Z,100.00
2022-10-13T00:27:34.489Z,100.00
2022-10-13T00:30:00.935Z,100.00
2022-10-13T00:32:27.438Z,100.00
2022-10-13T00:34:54.034Z,100.00
2022-10-13T00:37:20.431Z,100.00
2022-10-13T00:39:47.402Z,100.00
2022-10-13T00:42:14.200Z,100.00
2022-10-13T00:45:00.600Z,100.00
2022-10-13T00:47:29.070Z,100.00
2022-10-13T00:49:56.015Z,100.00
2022-10-13T00:52:23.655Z,100.00
2022-10-13T00:54:50.745Z,100.00
2022-10-13T00:57:18.351Z,100.00
2022-10-13T00:59:44.849Z,100.00
2022-10-13T01:02:11.331Z,100.00
2022-10-13T01:04:40.269Z,100.00
2022-10-13T01:07:06.703Z,100.00
2022-10-13T01:09:37.747Z,100.00
2022-10-13T01:12:25.908Z,100.00
2022-10-13T01:15:02.698Z,100.00
2022-10-13T01:17:48.905Z,100.00
2022-10-13T01:20:32.787Z,100.00
2022-10-13T01:23:53.153Z,100.00
2022-10-13T01:26:41.365Z,100.00
2022-10-13T01:29:41.235Z,100.00
2022-10-13T01:32:13.917Z,100.00
2022-10-13T01:34:48.120Z,100.00
2022-10-13T01:37:22.292Z,100.00
2022-10-13T01:40:14.343Z,100.00
2022-10-13T01:42:50.113Z,100.00
2022-10-13T01:45:19.681Z,100.00
2022-10-13T01:47:47.029Z,100.00
2022-10-13T01:50:14.989Z,100.00
2022-10-13T01:52:42.704Z,100.00
2022-10-13T01:55:12.018Z,100.00
2022-10-13T01:57:44.535Z,100.00
2022-10-13T02:00:19.524Z,100.00
2022-10-13T02:03:20.813Z,100.00
2022-10-13T02:05:53.758Z,100.00
2022-10-13T02:11:32.650Z,100.00
2022-10-13T02:17:10.360Z,100.00
2022-10-13T02:19:38.241Z,100.00
2022-10-13T02:22:06.287Z,100.00
2022-10-13T02:24:33.092Z,100.00
2022-10-13T02:26:59.556Z,100.00
2022-10-13T02:29:26.147Z,100.00
2022-10-13T02:31:54.808Z,100.00
2022-10-13T02:34:21.336Z,100.00
2022-10-13T02:36:47.923Z,100.00
2022-10-13T02:39:14.523Z,100.00
2022-10-13T02:41:40.999Z,100.00
2022-10-13T02:44:07.505Z,100.00
2022-10-13T02:46:34.347Z,100.00
2022-10-13T02:49:00.937Z,100.00
2022-10-13T02:51:27.438Z,100.00
2022-10-13T02:53:54.014Z,100.00
2022-10-13T02:56:20.554Z,100.00
2022-10-13T02:58:46.988Z,100.00
2022-10-13T03:01:14.959Z,100.00
2022-10-13T03:03:41.552Z,100.00
2022-10-13T03:06:08.168Z,100.00
2022-10-13T03:08:35.321Z,100.00
2022-10-13T03:11:02.033Z,100.00
2022-10-13T03:13:28.505Z,100.00
2022-10-13T03:15:54.997Z,100.00
2022-10-13T03:18:21.496Z,100.00
2022-10-13T03:21:02.153Z,100.00
2022-10-13T03:23:28.921Z,100.00
2022-10-13T03:25:55.970Z,100.00
2022-10-13T03:28:22.787Z,100.00
2022-10-13T03:30:49.258Z,100.00
2022-10-13T03:33:15.940Z,100.00
2022-10-13T03:35:42.445Z,100.00
2022-10-13T03:38:08.874Z,100.00
2022-10-13T03:40:36.407Z,100.00
2022-10-13T03:43:02.853Z,100.00
2022-10-13T03:45:31.905Z,100.00
2022-10-13T03:47:58.757Z,100.00
2022-10-13T03:50:25.251Z,100.00
2022-10-13T03:52:51.739Z,100.00
2022-10-13T03:55:18.229Z,100.00
2022-10-13T03:57:44.789Z,100.00
2022-10-13T04:00:12.066Z,100.00
2022-10-13T04:02:38.507Z,100.00
2022-10-13T04:05:05.302Z,100.00
2022-10-13T04:07:32.278Z,100.00
2022-10-13T04:09:58.681Z,100.00
2022-10-13T04:12:25.536Z,100.00
2022-10-13T04:14:52.147Z,100.00
2022-10-13T04:17:18.670Z,100.00
2022-10-13T04:19:45.193Z,100.00
2022-10-13T04:22:11.669Z,100.00
2022-10-13T04:24:38.132Z,100.00
2022-10-13T04:27:04.600Z,100.00
2022-10-13T04:29:32.079Z,100.00
2022-10-13T04:32:01.362Z,100.00
2022-10-13T04:34:27.930Z,100.00
2022-10-13T04:36:54.347Z,100.00
2022-10-13T04:39:20.836Z,100.00
2022-10-13T04:41:47.386Z,100.00
2022-10-13T04:44:13.797Z,100.00
2022-10-13T04:46:40.253Z,100.00
2022-10-13T04:49:06.836Z,100.00
2022-10-13T04:51:33.340Z,100.00
2022-10-13T04:54:05.516Z,100.00
2022-10-13T04:56:32.503Z,100.00
2022-10-13T04:58:59.892Z,100.00
2022-10-13T05:01:26.922Z,100.00
2022-10-13T05:03:54.920Z,100.00
2022-10-13T05:06:27.058Z,100.00
2022-10-13T05:08:53.879Z,100.00
2022-10-13T05:11:20.778Z,100.00
2022-10-13T05:13:48.490Z,100.00
2022-10-13T05:16:17.184Z,100.00
2022-10-13T05:18:43.781Z,100.00
2022-10-13T05:21:12.617Z,100.00
2022-10-13T05:23:40.245Z,100.00
2022-10-13T05:26:11.466Z,100.00
2022-10-13T05:28:38.443Z,100.00
2022-10-13T05:31:11.679Z,100.00
2022-10-13T05:33:38.468Z,100.00
2022-10-13T05:36:11.493Z,100.00
2022-10-13T05:38:38.781Z,100.00
2022-10-13T05:41:13.194Z,100.00
2022-10-13T05:43:40.577Z,100.00
2022-10-13T05:46:08.115Z,100.00
2022-10-13T05:48:35.276Z,100.00
2022-10-13T05:51:04.738Z,100.00
2022-10-13T05:53:34.343Z,100.00
2022-10-13T05:56:06.271Z,100.00
2022-10-13T05:58:38.791Z,100.00
2022-10-13T06:01:10.818Z,100.00
2022-10-13T06:03:38.190Z,100.00
2022-10-13T06:06:04.921Z,100.00
2022-10-13T06:08:32.083Z,100.00
2022-10-13T06:10:58.583Z,100.00
2022-10-13T06:13:25.034Z,100.00
2022-10-13T06:15:51.798Z,100.00
2022-10-13T06:18:18.267Z,100.00
2022-10-13T06:20:44.793Z,100.00
2022-10-13T06:23:11.461Z,100.00
2022-10-13T06:25:38.202Z,100.00
2022-10-13T06:28:04.773Z,99.78
2022-10-13T06:30:32.292Z,97.36
2022-10-13T06:32:58.820Z,95.60
2022-10-13T06:35:25.472Z,95.24
2022-10-13T06:37:53.367Z,95.93
2022-10-13T06:40:19.918Z,95.01
2022-10-13T06:42:50.172Z,95.06
2022-10-13T06:45:17.639Z,94.22
2022-10-13T06:47:44.111Z,93.78
2022-10-13T06:50:10.919Z,92.86
2022-10-13T06:52:37.776Z,90.78
2022-10-13T06:55:05.296Z,90.02
2022-10-13T06:57:32.628Z,88.65
2022-10-13T06:59:59.529Z,87.32
2022-10-13T07:02:26.084Z,86.50
2022-10-13T07:04:52.587Z,85.07
2022-10-13T07:07:19.590Z,84.37
2022-10-13T07:09:46.246Z,84.45
2022-10-13T07:12:14.158Z,83.47
2022-10-13T07:14:43.714Z,82.97
2022-10-13T07:17:10.841Z,82.66
2022-10-13T07:19:37.350Z,81.74
2022-10-13T07:22:04.160Z,81.65
2022-10-13T07:24:33.004Z,81.72
2022-10-13T07:27:03.909Z,80.63
2022-10-13T07:29:36.731Z,75.81
2022-10-13T07:32:03.549Z,69.07
2022-10-13T07:34:30.000Z,50.57
2022-10-13T07:36:57.128Z,40.38
2022-10-13T07:39:23.853Z,33.84
2022-10-13T07:41:51.498Z,29.88
2022-10-13T07:44:18.861Z,25.16
2022-10-13T07:46:53.434Z,23.39
2022-10-13T07:49:20.716Z,22.42
2022-10-13T07:51:50.559Z,21.89
2022-10-13T07:54:21.578Z,21.25
2022-10-13T07:56:57.091Z,20.37
2022-10-13T07:59:26.502Z,18.46
2022-10-13T08:01:53.503Z,20.57
2022-10-13T08:04:20.291Z,19.30
2022-10-13T08:06:50.224Z,20.06
2022-10-13T08:09:16.798Z,20.82
2022-10-13T08:11:43.345Z,19.87
2022-10-13T08:14:11.900Z,20.81
2022-10-13T08:16:40.086Z,22.13
2022-10-13T08:19:06.738Z,21.56
2022-10-13T08:21:57.598Z,22.41
2022-10-13T08:24:22.248Z,21.05
2022-10-13T08:26:53.396Z,21.55
2022-10-13T08:29:22.593Z,21.66
2022-10-13T08:31:51.681Z,20.34
2022-10-13T08:34:18.750Z,20.40
2022-10-13T08:36:47.782Z,21.07
2022-10-13T08:39:14.652Z,20.45
2022-10-13T08:41:46.594Z,20.09
2022-10-13T08:44:59.174Z,22.21
2022-10-13T08:47:27.200Z,23.19
2022-10-13T08:50:00.297Z,27.35
2022-10-13T08:52:29.693Z,32.42
2022-10-13T08:54:57.275Z,35.66
2022-10-13T08:57:24.053Z,37.80
2022-10-13T08:59:52.795Z,38.51
2022-10-13T09:02:27.233Z,38.67
2022-10-13T09:04:54.097Z,39.01
2022-10-13T09:07:24.900Z,39.74
2022-10-13T09:09:52.893Z,39.89
2022-10-13T09:12:24.477Z,39.26
2022-10-13T09:15:11.954Z,39.55
2022-10-13T09:17:41.055Z,40.23
2022-10-13T09:20:23.133Z,39.83
2022-10-13T09:23:01.447Z,40.01
2022-10-13T09:25:28.156Z,40.10
2022-10-13T09:27:58.060Z,40.63
2022-10-13T09:30:25.618Z,42.05
2022-10-13T09:33:06.418Z,42.94
2022-10-13T09:35:35.013Z,42.60
2022-10-13T09:38:05.609Z,41.82
2022-10-13T09:40:32.871Z,43.56
2022-10-13T09:43:01.414Z,42.63
2022-10-13T09:45:30.670Z,42.88
2022-10-13T09:48:04.585Z,44.26
2022-10-13T09:50:35.494Z,45.60
2022-10-13T09:53:25.714Z,45.16
2022-10-13T09:56:29.745Z,44.75
2022-10-13T09:59:18.194Z,44.89
2022-10-13T10:01:46.567Z,45.22
2022-10-13T10:04:18.070Z,44.49
2022-10-13T10:06:48.855Z,44.74
2022-10-13T10:09:37.242Z,44.92
2022-10-13T10:12:04.950Z,45.95
2022-10-13T10:14:37.053Z,45.09
2022-10-13T10:17:41.607Z,45.61
2022-10-13T10:20:26.548Z,45.54
2022-10-13T10:23:01.317Z,45.25
2022-10-13T10:25:52.496Z,45.33
2022-10-13T10:28:27.681Z,44.06
2022-10-13T10:31:02.965Z,45.05
2022-10-13T10:33:56.422Z,43.92
2022-10-13T10:36:28.639Z,45.88
2022-10-13T10:39:03.833Z,42.88
2022-10-13T10:41:45.583Z,43.80
2022-10-13T10:44:22.517Z,42.99
2022-10-13T10:46:49.966Z,43.44
2022-10-13T10:49:26.900Z,43.00
2022-10-13T10:51:54.073Z,43.41
2022-10-13T10:54:20.524Z,42.83
2022-10-13T10:57:00.549Z,42.92
2022-10-13T10:59:49.901Z,42.74
2022-10-13T11:02:35.505Z,42.55
2022-10-13T11:05:05.423Z,42.86
2022-10-13T11:07:33.413Z,42.67
2022-10-13T11:09:59.828Z,43.01
2022-10-13T11:12:45.033Z,42.19
2022-10-13T11:15:13.478Z,42.40
2022-10-13T11:17:41.252Z,42.97
2022-10-13T11:20:22.381Z,43.29
2022-10-13T11:22:57.723Z,43.99
2022-10-13T11:25:42.446Z,43.62
2022-10-13T11:28:21.287Z,43.59
2022-10-13T11:30:55.585Z,43.20
2022-10-13T11:33:34.862Z,43.21
2022-10-13T11:36:28.956Z,43.00
2022-10-13T11:39:20.543Z,43.23
2022-10-13T11:42:05.973Z,43.46
2022-10-13T11:44:45.782Z,43.50
2022-10-13T11:47:27.714Z,43.67
2022-10-13T11:50:08.204Z,43.58
2022-10-13T11:52:37.961Z,42.66
2022-10-13T11:58:16.481Z,42.36
2022-10-13T12:00:56.062Z,43.21
2022-10-13T12:03:40.521Z,42.92
2022-10-13T12:06:23.008Z,43.53
2022-10-13T12:08:51.953Z,43.37
2022-10-13T12:11:38.381Z,42.78
2022-10-13T12:14:07.768Z,42.07
2022-10-13T12:16:34.764Z,42.42
2022-10-13T12:19:10.146Z,42.69
2022-10-13T12:21:49.474Z,42.40
2022-10-13T12:24:16.524Z,42.71
2022-10-13T12:26:43.564Z,42.80
2022-10-13T12:29:14.729Z,42.82
2022-10-13T12:31:44.931Z,42.35
2022-10-13T12:34:21.855Z,42.63
2022-10-13T12:37:28.035Z,42.32
2022-10-13T12:39:56.941Z,42.72
2022-10-13T12:42:29.848Z,42.82
2022-10-13T12:44:57.831Z,43.94
2022-10-13T12:47:50.240Z,43.06
2022-10-13T12:50:26.132Z,42.85
2022-10-13T12:53:03.878Z,42.45
2022-10-13T12:55:33.162Z,42.66
2022-10-13T12:58:01.586Z,42.69
2022-10-13T13:00:29.998Z,42.49
2022-10-13T13:03:05.645Z,42.77
2022-10-13T13:05:50.758Z,43.18
2022-10-13T13:08:29.869Z,43.17
2022-10-13T13:11:01.510Z,43.28
2022-10-13T13:13:28.924Z,42.94
2022-10-13T13:16:13.991Z,43.68
2022-10-13T13:18:42.723Z,43.52
2022-10-13T13:21:12.021Z,44.46
2022-10-13T13:23:39.355Z,44.46
2022-10-13T13:26:14.255Z,44.68
2022-10-13T13:28:48.084Z,44.45
2022-10-13T13:31:19.643Z,45.11
2022-10-13T13:33:46.765Z,45.07
2022-10-13T13:36:24.222Z,45.85
2022-10-13T13:38:51.670Z,45.85
2022-10-13T13:41:18.531Z,46.30
2022-10-13T13:43:47.849Z,46.96
2022-10-13T13:46:21.139Z,47.06
2022-10-13T13:48:48.129Z,46.79
2022-10-13T13:51:15.565Z,46.54
2022-10-13T13:53:42.165Z,46.91
2022-10-13T13:56:17.324Z,46.32
2022-10-13T13:58:44.628Z,43.98
2022-10-13T14:01:11.726Z,42.40
2022-10-13T14:03:38.426Z,43.86
2022-10-13T14:06:05.519Z,44.51
2022-10-13T14:08:33.579Z,45.73
2022-10-13T14:11:00.252Z,45.75
2022-10-13T14:13:26.933Z,45.94
2022-10-13T14:15:57.771Z,46.36
2022-10-13T14:18:24.837Z,47.39
2022-10-13T14:20:51.430Z,47.74
2022-10-13T14:23:18.187Z,48.84
2022-10-13T14:25:44.880Z,48.50
2022-10-13T14:28:14.571Z,49.00
2022-10-13T14:30:44.429Z,49.28
2022-10-13T14:33:11.020Z,51.08
2022-10-13T14:35:37.503Z,50.87
2022-10-13T14:38:04.165Z,49.84
2022-10-13T14:40:31.158Z,50.33
2022-10-13T14:42:57.696Z,50.72
2022-10-13T14:45:24.263Z,50.42
2022-10-13T14:47:52.609Z,50.30
2022-10-13T14:50:19.113Z,50.83
2022-10-13T14:52:45.610Z,51.82
2022-10-13T14:55:12.451Z,51.82
2022-10-13T14:57:39.011Z,52.28
2022-10-13T15:00:05.855Z,52.45
2022-10-13T15:02:32.484Z,51.79
2022-10-13T15:04:58.963Z,52.39
2022-10-13T15:07:25.663Z,52.79
2022-10-13T15:10:04.318Z,54.14
2022-10-13T15:12:32.251Z,55.06
2022-10-13T15:14:58.985Z,56.02
2022-10-13T15:17:25.416Z,55.63
2022-10-13T15:19:52.131Z,56.19
2022-10-13T15:22:19.382Z,56.73
2022-10-13T15:24:46.533Z,56.05
2022-10-13T15:27:13.041Z,56.83
2022-10-13T15:29:39.577Z,56.71
2022-10-13T15:32:13.613Z,57.57
2022-10-13T15:34:40.140Z,58.51
2022-10-13T15:37:07.367Z,58.59
2022-10-13T15:39:34.155Z,59.13
2022-10-13T15:42:00.929Z,60.04
2022-10-13T15:44:28.062Z,60.11
2022-10-13T15:47:07.360Z,60.63
2022-10-13T15:49:39.393Z,62.05
2022-10-13T15:52:06.054Z,62.06
2022-10-13T15:54:33.545Z,61.78
2022-10-13T15:57:00.299Z,61.85
2022-10-13T15:59:26.832Z,62.05
2022-10-13T16:01:53.611Z,63.20
2022-10-13T16:04:20.331Z,63.99
2022-10-13T16:06:46.813Z,64.30
2022-10-13T16:09:13.497Z,64.51
2022-10-13T16:11:40.224Z,63.95
2022-10-13T16:14:06.704Z,65.21
2022-10-13T16:16:35.256Z,68.52
2022-10-13T16:19:02.098Z,66.59
2022-10-13T16:21:28.667Z,66.14
2022-10-13T16:23:55.509Z,65.88
2022-10-13T16:26:22.590Z,65.73
2022-10-13T16:28:49.310Z,66.19
2022-10-13T16:31:16.791Z,67.02
2022-10-13T16:33:45.065Z,67.62
2022-10-13T16:36:17.196Z,67.32
2022-10-13T16:38:45.038Z,67.69
2022-10-13T16:41:14.740Z,68.43
2022-10-13T16:43:42.197Z,67.96
2022-10-13T16:46:12.799Z,68.97
2022-10-13T16:48:43.219Z,68.84
2022-10-13T16:51:13.417Z,69.34
2022-10-13T16:53:40.465Z,69.86
2022-10-13T16:56:07.828Z,69.37
2022-10-13T16:58:34.736Z,70.17
2022-10-13T17:01:10.983Z,69.92
2022-10-13T17:03:38.873Z,69.87
2022-10-13T17:06:06.169Z,70.35
2022-10-13T17:08:33.085Z,71.01
2022-10-13T17:11:00.068Z,70.65
2022-10-13T17:13:26.937Z,70.96
2022-10-13T17:15:55.460Z,70.15
2022-10-13T17:18:22.286Z,70.54
2022-10-13T17:21:02.361Z,70.65
2022-10-13T17:23:29.323Z,70.91
2022-10-13T17:25:56.365Z,71.62
2022-10-13T17:28:23.243Z,71.73
2022-10-13T17:31:04.233Z,71.38
2022-10-13T17:33:34.804Z,71.72
2022-10-13T17:36:04.354Z,71.77
2022-10-13T17:38:34.062Z,71.47
2022-10-13T17:41:01.794Z,71.86
2022-10-13T17:43:29.123Z,72.01
2022-10-13T17:46:07.476Z,71.84
2022-10-13T17:48:42.850Z,71.71
2022-10-13T17:51:12.064Z,72.15
2022-10-13T17:53:39.709Z,72.12
2022-10-13T17:56:09.460Z,72.71
2022-10-13T17:58:37.513Z,73.03
2022-10-13T18:01:14.166Z,73.26
2022-10-13T18:03:54.850Z,73.94
2022-10-13T18:06:22.744Z,74.63
2022-10-13T18:08:52.673Z,74.81
2022-10-13T18:11:21.573Z,74.50
2022-10-13T18:13:49.015Z,74.86
2022-10-13T18:16:18.477Z,74.55
2022-10-13T18:18:45.900Z,74.72
2022-10-13T18:21:15.618Z,74.89
2022-10-13T18:23:43.574Z,74.88
2022-10-13T18:26:15.810Z,75.73
2022-10-13T18:28:44.305Z,76.03
2022-10-13T18:31:22.139Z,76.23
2022-10-13T18:33:48.799Z,75.76
2022-10-13T18:36:20.634Z,75.93
2022-10-13T18:38:47.797Z,76.25
2022-10-13T18:41:15.318Z,75.99
2022-10-13T18:43:41.856Z,75.39
2022-10-13T18:46:09.764Z,76.19
2022-10-13T18:48:36.693Z,76.25
2022-10-13T18:51:08.367Z,76.47
2022-10-13T18:53:36.053Z,75.85
2022-10-13T18:56:07.871Z,76.04
2022-10-13T18:58:35.434Z,75.12
2022-10-13T19:01:03.374Z,75.29
2022-10-13T19:03:35.760Z,75.22
2022-10-13T19:06:04.332Z,75.70
2022-10-13T19:08:32.526Z,75.59
2022-10-13T19:10:59.754Z,74.84
2022-10-13T19:13:27.820Z,75.79
2022-10-13T19:16:01.341Z,74.90
2022-10-13T19:18:28.115Z,75.89
2022-10-13T19:20:54.660Z,75.00
2022-10-13T19:23:22.200Z,74.92
2022-10-13T19:25:48.889Z,74.95
2022-10-13T19:28:15.417Z,74.93
2022-10-13T19:30:42.361Z,75.18
2022-10-13T19:33:10.467Z,75.49
2022-10-13T19:35:48.296Z,75.74
2022-10-13T19:38:15.709Z,75.43
2022-10-13T19:40:49.715Z,75.82
2022-10-13T19:43:19.322Z,75.40
2022-10-13T19:45:47.265Z,75.42
2022-10-13T19:48:13.979Z,75.35
2022-10-13T19:50:41.705Z,75.00
2022-10-13T19:53:09.621Z,75.35
2022-10-13T19:55:44.621Z,75.73
2022-10-13T19:58:11.129Z,76.08
2022-10-13T20:00:37.681Z,75.54
2022-10-13T20:03:05.120Z,75.47
2022-10-13T20:05:32.343Z,76.20
2022-10-13T20:07:58.783Z,76.71
2022-10-13T20:10:25.577Z,75.82
2022-10-13T20:12:52.249Z,75.70
2022-10-13T20:15:18.672Z,76.32
2022-10-13T20:17:45.099Z,75.89
2022-10-13T20:20:11.689Z,76.41
2022-10-13T20:22:39.794Z,77.01
2022-10-13T20:25:09.121Z,76.60
2022-10-13T20:27:36.086Z,77.15
2022-10-13T20:30:02.533Z,77.73
2022-10-13T20:32:29.042Z,77.09
2022-10-13T20:34:55.543Z,77.22
2022-10-13T20:37:22.339Z,77.74
2022-10-13T20:39:49.274Z,78.08
2022-10-13T20:42:15.753Z,78.00
2022-10-13T20:44:42.305Z,78.25
2022-10-13T20:47:08.753Z,78.93
2022-10-13T20:49:35.251Z,79.23
2022-10-13T20:52:01.656Z,80.04
2022-10-13T20:54:28.108Z,80.10
2022-10-13T20:56:54.639Z,80.48
2022-10-13T20:59:21.077Z,80.96
2022-10-13T21:01:47.499Z,80.89
2022-10-13T21:04:14.176Z,81.09
2022-10-13T21:06:41.320Z,80.70
2022-10-13T21:09:07.968Z,81.56
2022-10-13T21:11:35.257Z,81.06
2022-10-13T21:14:06.407Z,81.29
2022-10-13T21:16:33.638Z,81.78
2022-10-13T21:19:00.265Z,81.82
2022-10-13T21:21:32.432Z,82.26
2022-10-13T21:24:01.074Z,82.88
2022-10-13T21:26:29.322Z,83.24
2022-10-13T21:28:56.048Z,83.50
2022-10-13T21:31:23.898Z,83.70
2022-10-13T21:33:50.521Z,83.90
2022-10-13T21:36:18.137Z,84.33
2022-10-13T21:38:46.252Z,83.88
2022-10-13T21:41:13.946Z,84.37
2022-10-13T21:43:40.800Z,84.63
2022-10-13T21:46:14.080Z,85.81
2022-10-13T21:48:40.685Z,84.89
2022-10-13T21:51:23.556Z,84.23
2022-10-13T21:53:54.661Z,84.78
2022-10-13T21:56:21.733Z,84.95
2022-10-13T21:58:49.077Z,85.92
2022-10-13T22:01:19.397Z,86.65
2022-10-13T22:03:47.186Z,86.33
2022-10-13T22:06:19.202Z,86.07
2022-10-13T22:08:47.588Z,86.29
2022-10-13T22:11:14.915Z,86.79
2022-10-13T22:13:41.390Z,87.11
2022-10-13T22:16:19.644Z,87.12
2022-10-13T22:18:46.431Z,87.48
2022-10-13T22:21:16.722Z,87.13
2022-10-13T22:23:43.459Z,87.47
2022-10-13T22:26:10.531Z,87.66
2022-10-13T22:28:37.763Z,86.74
2022-10-13T22:31:13.373Z,86.93
2022-10-13T22:33:41.363Z,87.46
2022-10-13T22:36:15.672Z,87.09
2022-10-13T22:38:42.986Z,87.15
2022-10-13T22:41:09.932Z,86.99
2022-10-13T22:43:36.578Z,87.89
2022-10-13T22:46:03.845Z,87.79
2022-10-13T22:48:30.613Z,87.95
2022-10-13T22:50:57.407Z,88.60
2022-10-13T22:53:23.918Z,88.11
2022-10-13T22:55:50.419Z,88.71
2022-10-13T22:58:17.065Z,89.14
2022-10-13T23:00:43.525Z,89.33
2022-10-13T23:03:15.028Z,89.68
2022-10-13T23:05:43.326Z,89.56
2022-10-13T23:08:11.085Z,89.77
2022-10-13T23:10:37.618Z,90.11
2022-10-13T23:13:05.120Z,90.32
2022-10-13T23:15:32.415Z,89.52
2022-10-13T23:17:58.853Z,89.91
2022-10-13T23:20:25.507Z,90.05
2022-10-13T23:22:51.943Z,89.89
2022-10-13T23:25:18.389Z,90.02
2022-10-13T23:27:44.891Z,91.25
2022-10-13T23:30:12.074Z,90.69
2022-10-13T23:32:38.476Z,90.34
2022-10-13T23:35:05.290Z,90.95
2022-10-13T23:37:32.349Z,90.99
2022-10-13T23:39:58.835Z,91.45
2022-10-13T23:42:25.407Z,91.47
2022-10-13T23:44:51.843Z,90.98
2022-10-13T23:47:18.493Z,90.82
2022-10-13T23:49:45.200Z,90.57
2022-10-13T23:52:11.701Z,89.87
2022-10-13T23:54:38.196Z,89.59
2022-10-13T23:57:04.625Z,89.85
2022-10-13T23:59:34.208Z,89.19
